sensor_id;sensor_type;location;lat;lon;timestamp;P1;durP1;ratioP1;P2;durP2;ratioP2
8247;SDS011;4164;49.844;8.830;2023-06-22T00:01:05;11.53;;;9.07;;
8247;SDS011;4164;49.844;8.830;2023-06-22T00:03:31;11.00;;;8.57;;
8247;SDS011;4164;49.844;8.830;2023-06-22T00:05:56;12.37;;;9.67;;
8247;SDS011;4164;49.844;8.830;2023-06-22T00:08:22;10.03;;;8.60;;
8247;SDS011;4164;49.844;8.830;2023-06-22T00:10:47;9.57;;;8.60;;
8247;SDS011;4164;49.844;8.830;2023-06-22T00:13:13;12.30;;;9.43;;
8247;SDS011;4164;49.844;8.830;2023-06-22T00:15:40;13.07;;;7.90;;
8247;SDS011;4164;49.844;8.830;2023-06-22T00:18:06;10.77;;;8.23;;
8247;SDS011;4164;49.844;8.830;2023-06-22T00:20:33;10.57;;;8.33;;
8247;SDS011;4164;49.844;8.830;2023-06-22T00:23:02;9.33;;;8.03;;
8247;SDS011;4164;49.844;8.830;2023-06-22T00:25:33;11.23;;;8.90;;
8247;SDS011;4164;49.844;8.830;2023-06-22T00:28:02;9.90;;;8.80;;
8247;SDS011;4164;49.844;8.830;2023-06-22T00:30:30;9.10;;;8.07;;
8247;SDS011;4164;49.844;8.830;2023-06-22T00:32:55;12.57;;;9.07;;
8247;SDS011;4164;49.844;8.830;2023-06-22T00:35:21;12.30;;;9.13;;
8247;SDS011;4164;49.844;8.830;2023-06-22T00:37:47;11.30;;;8.90;;
8247;SDS011;4164;49.844;8.830;2023-06-22T00:40:13;9.80;;;8.80;;
8247;SDS011;4164;49.844;8.830;2023-06-22T00:42:39;10.77;;;8.87;;
8247;SDS011;4164;49.844;8.830;2023-06-22T00:45:06;13.07;;;8.67;;
8247;SDS011;4164;49.844;8.830;2023-06-22T00:47:32;9.63;;;8.60;;
8247;SDS011;4164;49.844;8.830;2023-06-22T00:49:59;11.63;;;8.67;;
8247;SDS011;4164;49.844;8.830;2023-06-22T00:52:25;10.67;;;8.23;;
8247;SDS011;4164;49.844;8.830;2023-06-22T00:54:54;10.27;;;8.30;;
8247;SDS011;4164;49.844;8.830;2023-06-22T00:57:21;9.67;;;8.60;;
8247;SDS011;4164;49.844;8.830;2023-06-22T00:59:52;10.67;;;8.80;;
8247;SDS011;4164;49.844;8.830;2023-06-22T01:02:18;12.23;;;9.20;;
8247;SDS011;4164;49.844;8.830;2023-06-22T01:04:44;12.07;;;8.67;;
8247;SDS011;4164;49.844;8.830;2023-06-22T01:07:11;9.73;;;8.30;;
8247;SDS011;4164;49.844;8.830;2023-06-22T01:09:58;10.50;;;8.27;;
8247;SDS011;4164;49.844;8.830;2023-06-22T01:12:32;10.00;;;9.00;;
8247;SDS011;4164;49.844;8.830;2023-06-22T01:15:18;9.17;;;8.17;;
8247;SDS011;4164;49.844;8.830;2023-06-22T01:18:06;10.03;;;8.07;;
8247;SDS011;4164;49.844;8.830;2023-06-22T01:20:34;11.23;;;8.00;;
8247;SDS011;4164;49.844;8.830;2023-06-22T01:31:00;10.73;;;8.70;;
8247;SDS011;4164;49.844;8.830;2023-06-22T01:33:31;12.17;;;9.10;;
8247;SDS011;4164;49.844;8.830;2023-06-22T01:36:00;15.53;;;10.37;;
8247;SDS011;4164;49.844;8.830;2023-06-22T01:38:27;11.17;;;9.13;;
8247;SDS011;4164;49.844;8.830;2023-06-22T01:40:54;14.33;;;10.50;;
8247;SDS011;4164;49.844;8.830;2023-06-22T01:43:21;12.73;;;10.87;;
8247;SDS011;4164;49.844;8.830;2023-06-22T01:45:49;17.70;;;12.00;;
8247;SDS011;4164;49.844;8.830;2023-06-22T01:48:16;14.67;;;10.97;;
8247;SDS011;4164;49.844;8.830;2023-06-22T01:50:42;13.80;;;11.77;;
8247;SDS011;4164;49.844;8.830;2023-06-22T01:53:08;17.20;;;12.50;;
8247;SDS011;4164;49.844;8.830;2023-06-22T01:55:36;14.13;;;12.63;;
8247;SDS011;4164;49.844;8.830;2023-06-22T01:58:02;20.33;;;11.93;;
8247;SDS011;4164;49.844;8.830;2023-06-22T02:00:28;14.03;;;12.63;;
8247;SDS011;4164;49.844;8.830;2023-06-22T02:03:03;15.70;;;12.97;;
8247;SDS011;4164;49.844;8.830;2023-06-22T02:05:35;14.57;;;12.93;;
8247;SDS011;4164;49.844;8.830;2023-06-22T02:08:07;15.17;;;12.67;;
8247;SDS011;4164;49.844;8.830;2023-06-22T02:10:36;15.63;;;11.77;;
8247;SDS011;4164;49.844;8.830;2023-06-22T02:13:04;16.00;;;12.83;;
8247;SDS011;4164;49.844;8.830;2023-06-22T02:15:32;13.17;;;11.67;;
8247;SDS011;4164;49.844;8.830;2023-06-22T02:17:59;14.57;;;11.57;;
8247;SDS011;4164;49.844;8.830;2023-06-22T02:20:25;16.13;;;12.50;;
8247;SDS011;4164;49.844;8.830;2023-06-22T02:22:50;13.47;;;12.07;;
8247;SDS011;4164;49.844;8.830;2023-06-22T02:25:16;14.60;;;12.50;;
8247;SDS011;4164;49.844;8.830;2023-06-22T02:27:41;14.23;;;12.50;;
8247;SDS011;4164;49.844;8.830;2023-06-22T02:30:07;17.63;;;12.73;;
8247;SDS011;4164;49.844;8.830;2023-06-22T02:32:36;14.17;;;12.57;;
8247;SDS011;4164;49.844;8.830;2023-06-22T02:35:02;16.10;;;12.77;;
8247;SDS011;4164;49.844;8.830;2023-06-22T02:37:31;17.03;;;12.83;;
8247;SDS011;4164;49.844;8.830;2023-06-22T02:39:57;14.07;;;12.57;;
8247;SDS011;4164;49.844;8.830;2023-06-22T02:42:26;13.50;;;12.10;;
8247;SDS011;4164;49.844;8.830;2023-06-22T02:44:51;15.30;;;12.27;;
8247;SDS011;4164;49.844;8.830;2023-06-22T02:47:17;13.53;;;11.63;;
8247;SDS011;4164;49.844;8.830;2023-06-22T02:49:43;13.60;;;12.13;;
8247;SDS011;4164;49.844;8.830;2023-06-22T02:52:10;14.00;;;12.60;;
8247;SDS011;4164;49.844;8.830;2023-06-22T02:54:36;14.93;;;13.43;;
8247;SDS011;4164;49.844;8.830;2023-06-22T02:57:01;14.03;;;12.63;;
8247;SDS011;4164;49.844;8.830;2023-06-22T02:59:27;13.57;;;12.17;;
8247;SDS011;4164;49.844;8.830;2023-06-22T03:01:53;15.13;;;13.47;;
8247;SDS011;4164;49.844;8.830;2023-06-22T03:04:19;14.37;;;12.97;;
8247;SDS011;4164;49.844;8.830;2023-06-22T03:06:44;13.80;;;12.50;;
8247;SDS011;4164;49.844;8.830;2023-06-22T03:09:15;14.30;;;12.80;;
8247;SDS011;4164;49.844;8.830;2023-06-22T03:11:41;13.67;;;12.27;;
8247;SDS011;4164;49.844;8.830;2023-06-22T03:14:07;15.10;;;12.93;;
8247;SDS011;4164;49.844;8.830;2023-06-22T03:16:33;14.27;;;12.83;;
8247;SDS011;4164;49.844;8.830;2023-06-22T03:18:58;15.23;;;13.63;;
8247;SDS011;4164;49.844;8.830;2023-06-22T03:21:26;14.83;;;13.10;;
8247;SDS011;4164;49.844;8.830;2023-06-22T03:23:53;15.07;;;13.27;;
8247;SDS011;4164;49.844;8.830;2023-06-22T03:26:19;14.93;;;13.37;;
8247;SDS011;4164;49.844;8.830;2023-06-22T03:28:44;16.07;;;14.37;;
8247;SDS011;4164;49.844;8.830;2023-06-22T03:31:10;16.20;;;13.33;;
8247;SDS011;4164;49.844;8.830;2023-06-22T03:33:36;15.30;;;13.53;;
8247;SDS011;4164;49.844;8.830;2023-06-22T03:36:01;16.40;;;14.70;;
8247;SDS011;4164;49.844;8.830;2023-06-22T03:38:27;15.47;;;13.87;;
8247;SDS011;4164;49.844;8.830;2023-06-22T03:40:53;15.57;;;13.70;;
8247;SDS011;4164;49.844;8.830;2023-06-22T03:43:18;18.10;;;14.47;;
8247;SDS011;4164;49.844;8.830;2023-06-22T03:45:44;15.40;;;13.90;;
8247;SDS011;4164;49.844;8.830;2023-06-22T03:48:12;16.67;;;14.47;;
8247;SDS011;4164;49.844;8.830;2023-06-22T03:50:38;16.43;;;14.73;;
8247;SDS011;4164;49.844;8.830;2023-06-22T03:53:03;17.10;;;13.63;;
8247;SDS011;4164;49.844;8.830;2023-06-22T03:55:29;16.47;;;14.40;;
8247;SDS011;4164;49.844;8.830;2023-06-22T03:57:55;18.67;;;13.67;;
8247;SDS011;4164;49.844;8.830;2023-06-22T04:00:22;17.80;;;13.83;;
8247;SDS011;4164;49.844;8.830;2023-06-22T04:02:48;17.03;;;14.60;;
8247;SDS011;4164;49.844;8.830;2023-06-22T04:05:14;17.23;;;13.53;;
8247;SDS011;4164;49.844;8.830;2023-06-22T04:07:39;14.90;;;13.37;;
8247;SDS011;4164;49.844;8.830;2023-06-22T04:10:05;16.43;;;13.73;;
8247;SDS011;4164;49.844;8.830;2023-06-22T04:12:31;14.70;;;13.10;;
8247;SDS011;4164;49.844;8.830;2023-06-22T04:14:57;15.30;;;13.80;;
8247;SDS011;4164;49.844;8.830;2023-06-22T04:17:22;14.43;;;12.90;;
8247;SDS011;4164;49.844;8.830;2023-06-22T04:19:50;15.30;;;13.70;;
8247;SDS011;4164;49.844;8.830;2023-06-22T04:22:16;16.03;;;13.50;;
8247;SDS011;4164;49.844;8.830;2023-06-22T04:24:41;16.70;;;13.47;;
8247;SDS011;4164;49.844;8.830;2023-06-22T04:27:07;16.13;;;13.50;;
8247;SDS011;4164;49.844;8.830;2023-06-22T04:29:32;14.63;;;13.13;;
8247;SDS011;4164;49.844;8.830;2023-06-22T04:31:58;15.50;;;13.83;;
8247;SDS011;4164;49.844;8.830;2023-06-22T04:34:28;15.53;;;13.93;;
8247;SDS011;4164;49.844;8.830;2023-06-22T04:36:54;16.07;;;14.57;;
8247;SDS011;4164;49.844;8.830;2023-06-22T04:39:19;18.97;;;15.20;;
8247;SDS011;4164;49.844;8.830;2023-06-22T04:41:45;18.87;;;15.20;;
8247;SDS011;4164;49.844;8.830;2023-06-22T04:44:11;17.60;;;15.93;;
8247;SDS011;4164;49.844;8.830;2023-06-22T04:46:51;17.20;;;15.37;;
8247;SDS011;4164;49.844;8.830;2023-06-22T04:49:24;16.90;;;15.20;;
8247;SDS011;4164;49.844;8.830;2023-06-22T04:51:58;17.40;;;15.43;;
8247;SDS011;4164;49.844;8.830;2023-06-22T04:54:24;18.67;;;16.67;;
8247;SDS011;4164;49.844;8.830;2023-06-22T04:56:50;19.57;;;15.43;;
8247;SDS011;4164;49.844;8.830;2023-06-22T04:59:31;16.63;;;14.17;;
8247;SDS011;4164;49.844;8.830;2023-06-22T05:01:57;16.37;;;14.63;;
8247;SDS011;4164;49.844;8.830;2023-06-22T05:04:24;16.70;;;14.33;;
8247;SDS011;4164;49.844;8.830;2023-06-22T05:06:52;17.03;;;15.27;;
8247;SDS011;4164;49.844;8.830;2023-06-22T05:09:18;18.43;;;15.03;;
8247;SDS011;4164;49.844;8.830;2023-06-22T05:11:44;17.27;;;15.43;;
8247;SDS011;4164;49.844;8.830;2023-06-22T05:14:10;16.57;;;14.77;;
8247;SDS011;4164;49.844;8.830;2023-06-22T05:16:36;16.57;;;14.97;;
8247;SDS011;4164;49.844;8.830;2023-06-22T05:19:02;17.73;;;15.97;;
8247;SDS011;4164;49.844;8.830;2023-06-22T05:21:29;17.87;;;14.40;;
8247;SDS011;4164;49.844;8.830;2023-06-22T05:23:55;18.13;;;14.53;;
8247;SDS011;4164;49.844;8.830;2023-06-22T05:26:25;23.23;;;14.83;;
8247;SDS011;4164;49.844;8.830;2023-06-22T05:28:51;20.67;;;14.13;;
8247;SDS011;4164;49.844;8.830;2023-06-22T05:31:18;18.60;;;14.80;;
8247;SDS011;4164;49.844;8.830;2023-06-22T05:33:47;15.00;;;13.17;;
8247;SDS011;4164;49.844;8.830;2023-06-22T05:36:14;23.33;;;14.67;;
8247;SDS011;4164;49.844;8.830;2023-06-22T05:38:40;18.00;;;13.87;;
8247;SDS011;4164;49.844;8.830;2023-06-22T05:41:06;18.23;;;15.50;;
8247;SDS011;4164;49.844;8.830;2023-06-22T05:43:32;16.63;;;14.00;;
8247;SDS011;4164;49.844;8.830;2023-06-22T05:45:59;16.13;;;14.43;;
8247;SDS011;4164;49.844;8.830;2023-06-22T05:48:25;17.87;;;14.70;;
8247;SDS011;4164;49.844;8.830;2023-06-22T05:50:51;17.03;;;14.60;;
8247;SDS011;4164;49.844;8.830;2023-06-22T05:53:17;14.70;;;13.07;;
8247;SDS011;4164;49.844;8.830;2023-06-22T05:55:42;15.10;;;13.27;;
8247;SDS011;4164;49.844;8.830;2023-06-22T05:58:08;15.87;;;13.77;;
8247;SDS011;4164;49.844;8.830;2023-06-22T06:00:34;15.80;;;13.30;;
8247;SDS011;4164;49.844;8.830;2023-06-22T06:03:00;13.90;;;12.40;;
8247;SDS011;4164;49.844;8.830;2023-06-22T06:05:29;15.37;;;12.03;;
8247;SDS011;4164;49.844;8.830;2023-06-22T06:07:55;13.27;;;11.87;;
8247;SDS011;4164;49.844;8.830;2023-06-22T06:10:21;14.77;;;12.23;;
8247;SDS011;4164;49.844;8.830;2023-06-22T06:12:46;14.67;;;12.93;;
8247;SDS011;4164;49.844;8.830;2023-06-22T06:15:12;14.73;;;11.77;;
8247;SDS011;4164;49.844;8.830;2023-06-22T06:17:50;12.93;;;11.63;;
8247;SDS011;4164;49.844;8.830;2023-06-22T06:20:21;15.33;;;13.13;;
8247;SDS011;4164;49.844;8.830;2023-06-22T06:22:48;12.87;;;11.67;;
8247;SDS011;4164;49.844;8.830;2023-06-22T06:25:14;16.10;;;13.30;;
8247;SDS011;4164;49.844;8.830;2023-06-22T06:27:48;15.50;;;12.23;;
8247;SDS011;4164;49.844;8.830;2023-06-22T06:30:15;14.90;;;13.07;;
8247;SDS011;4164;49.844;8.830;2023-06-22T06:32:42;14.30;;;12.00;;
8247;SDS011;4164;49.844;8.830;2023-06-22T06:35:10;14.30;;;12.83;;
8247;SDS011;4164;49.844;8.830;2023-06-22T06:37:37;15.30;;;11.87;;
8247;SDS011;4164;49.844;8.830;2023-06-22T06:40:05;13.43;;;11.57;;
8247;SDS011;4164;49.844;8.830;2023-06-22T06:42:35;16.33;;;11.47;;
8247;SDS011;4164;49.844;8.830;2023-06-22T06:45:03;13.70;;;11.67;;
8247;SDS011;4164;49.844;8.830;2023-06-22T06:47:30;12.00;;;10.90;;
8247;SDS011;4164;49.844;8.830;2023-06-22T06:49:55;15.17;;;11.07;;
8247;SDS011;4164;49.844;8.830;2023-06-22T06:52:21;13.53;;;11.60;;
8247;SDS011;4164;49.844;8.830;2023-06-22T06:54:46;13.73;;;11.80;;
8247;SDS011;4164;49.844;8.830;2023-06-22T06:57:12;14.80;;;11.80;;
8247;SDS011;4164;49.844;8.830;2023-06-22T06:59:38;14.30;;;12.03;;
8247;SDS011;4164;49.844;8.830;2023-06-22T07:02:04;13.07;;;11.37;;
8247;SDS011;4164;49.844;8.830;2023-06-22T07:04:30;14.57;;;10.03;;
8247;SDS011;4164;49.844;8.830;2023-06-22T07:06:58;11.87;;;10.40;;
8247;SDS011;4164;49.844;8.830;2023-06-22T07:09:26;12.67;;;10.17;;
8247;SDS011;4164;49.844;8.830;2023-06-22T07:11:51;11.53;;;9.93;;
8247;SDS011;4164;49.844;8.830;2023-06-22T07:14:17;13.17;;;10.50;;
8247;SDS011;4164;49.844;8.830;2023-06-22T07:16:42;10.60;;;9.50;;
8247;SDS011;4164;49.844;8.830;2023-06-22T07:19:08;11.90;;;10.70;;
8247;SDS011;4164;49.844;8.830;2023-06-22T07:21:36;11.07;;;9.77;;
8247;SDS011;4164;49.844;8.830;2023-06-22T07:24:01;11.80;;;9.93;;
8247;SDS011;4164;49.844;8.830;2023-06-22T07:26:27;10.17;;;9.17;;
8247;SDS011;4164;49.844;8.830;2023-06-22T07:28:52;12.47;;;9.57;;
8247;SDS011;4164;49.844;8.830;2023-06-22T07:31:18;11.57;;;9.97;;
8247;SDS011;4164;49.844;8.830;2023-06-22T07:33:43;11.00;;;9.87;;
8247;SDS011;4164;49.844;8.830;2023-06-22T07:36:09;10.27;;;9.27;;
8247;SDS011;4164;49.844;8.830;2023-06-22T07:38:34;12.07;;;9.80;;
8247;SDS011;4164;49.844;8.830;2023-06-22T07:41:00;12.57;;;10.30;;
8247;SDS011;4164;49.844;8.830;2023-06-22T07:43:26;13.07;;;10.17;;
8247;SDS011;4164;49.844;8.830;2023-06-22T07:45:51;10.83;;;9.73;;
8247;SDS011;4164;49.844;8.830;2023-06-22T07:48:19;11.17;;;10.07;;
8247;SDS011;4164;49.844;8.830;2023-06-22T07:50:46;10.83;;;9.83;;
8247;SDS011;4164;49.844;8.830;2023-06-22T07:53:11;10.87;;;9.83;;
8247;SDS011;4164;49.844;8.830;2023-06-22T07:55:37;10.80;;;9.47;;
8247;SDS011;4164;49.844;8.830;2023-06-22T07:58:02;11.27;;;10.07;;
8247;SDS011;4164;49.844;8.830;2023-06-22T08:00:28;11.80;;;9.77;;
8247;SDS011;4164;49.844;8.830;2023-06-22T08:02:53;12.33;;;9.90;;
8247;SDS011;4164;49.844;8.830;2023-06-22T08:05:19;15.73;;;10.13;;
8247;SDS011;4164;49.844;8.830;2023-06-22T08:07:44;14.80;;;10.23;;
8247;SDS011;4164;49.844;8.830;2023-06-22T08:10:11;12.17;;;9.70;;
8247;SDS011;4164;49.844;8.830;2023-06-22T08:12:37;11.57;;;10.37;;
8247;SDS011;4164;49.844;8.830;2023-06-22T08:15:06;10.37;;;9.37;;
8247;SDS011;4164;49.844;8.830;2023-06-22T08:17:32;10.60;;;9.47;;
8247;SDS011;4164;49.844;8.830;2023-06-22T08:19:58;9.60;;;8.67;;
8247;SDS011;4164;49.844;8.830;2023-06-22T08:22:24;13.20;;;9.30;;
8247;SDS011;4164;49.844;8.830;2023-06-22T08:24:50;11.93;;;10.07;;
8247;SDS011;4164;49.844;8.830;2023-06-22T08:27:15;10.33;;;9.17;;
8247;SDS011;4164;49.844;8.830;2023-06-22T08:29:43;10.40;;;9.30;;
8247;SDS011;4164;49.844;8.830;2023-06-22T08:32:10;12.27;;;9.27;;
8247;SDS011;4164;49.844;8.830;2023-06-22T08:34:36;11.17;;;9.47;;
8247;SDS011;4164;49.844;8.830;2023-06-22T08:37:02;9.77;;;8.87;;
8247;SDS011;4164;49.844;8.830;2023-06-22T08:39:31;10.37;;;9.27;;
8247;SDS011;4164;49.844;8.830;2023-06-22T08:41:57;10.20;;;9.17;;
8247;SDS011;4164;49.844;8.830;2023-06-22T08:44:22;11.10;;;9.20;;
8247;SDS011;4164;49.844;8.830;2023-06-22T08:46:48;11.47;;;9.30;;
8247;SDS011;4164;49.844;8.830;2023-06-22T08:49:13;9.73;;;8.73;;
8247;SDS011;4164;49.844;8.830;2023-06-22T08:51:39;9.33;;;8.43;;
8247;SDS011;4164;49.844;8.830;2023-06-22T08:54:05;10.73;;;8.13;;
8247;SDS011;4164;49.844;8.830;2023-06-22T08:56:31;10.53;;;8.33;;
8247;SDS011;4164;49.844;8.830;2023-06-22T08:58:56;14.30;;;8.30;;
8247;SDS011;4164;49.844;8.830;2023-06-22T09:01:22;9.37;;;8.57;;
8247;SDS011;4164;49.844;8.830;2023-06-22T09:03:47;9.47;;;8.27;;
8247;SDS011;4164;49.844;8.830;2023-06-22T09:06:19;9.17;;;8.37;;
8247;SDS011;4164;49.844;8.830;2023-06-22T09:08:46;9.37;;;8.37;;
8247;SDS011;4164;49.844;8.830;2023-06-22T09:11:12;9.20;;;8.27;;
8247;SDS011;4164;49.844;8.830;2023-06-22T09:13:37;9.70;;;8.57;;
8247;SDS011;4164;49.844;8.830;2023-06-22T09:16:03;10.60;;;7.80;;
8247;SDS011;4164;49.844;8.830;2023-06-22T09:18:29;13.43;;;8.93;;
8247;SDS011;4164;49.844;8.830;2023-06-22T09:20:54;10.90;;;9.33;;
8247;SDS011;4164;49.844;8.830;2023-06-22T09:23:20;19.53;;;8.83;;
8247;SDS011;4164;49.844;8.830;2023-06-22T09:25:45;9.50;;;8.57;;
8247;SDS011;4164;49.844;8.830;2023-06-22T09:28:12;10.27;;;9.20;;
8247;SDS011;4164;49.844;8.830;2023-06-22T09:30:39;9.40;;;8.47;;
8247;SDS011;4164;49.844;8.830;2023-06-22T09:33:08;8.87;;;7.97;;
8247;SDS011;4164;49.844;8.830;2023-06-22T09:35:33;8.63;;;7.83;;
8247;SDS011;4164;49.844;8.830;2023-06-22T09:37:59;10.17;;;8.67;;
8247;SDS011;4164;49.844;8.830;2023-06-22T09:40:24;9.17;;;8.33;;
8247;SDS011;4164;49.844;8.830;2023-06-22T09:42:50;14.67;;;8.10;;
8247;SDS011;4164;49.844;8.830;2023-06-22T09:45:15;9.07;;;7.60;;
8247;SDS011;4164;49.844;8.830;2023-06-22T09:47:41;12.83;;;8.57;;
8247;SDS011;4164;49.844;8.830;2023-06-22T09:50:07;11.17;;;8.30;;
8247;SDS011;4164;49.844;8.830;2023-06-22T09:52:33;9.73;;;8.70;;
8247;SDS011;4164;49.844;8.830;2023-06-22T09:54:59;9.80;;;8.80;;
8247;SDS011;4164;49.844;8.830;2023-06-22T09:57:24;9.90;;;8.90;;
8247;SDS011;4164;49.844;8.830;2023-06-22T09:59:50;8.97;;;8.17;;
8247;SDS011;4164;49.844;8.830;2023-06-22T10:02:15;8.70;;;7.90;;
8247;SDS011;4164;49.844;8.830;2023-06-22T10:04:42;11.20;;;7.90;;
8247;SDS011;4164;49.844;8.830;2023-06-22T10:07:07;8.57;;;7.77;;
8247;SDS011;4164;49.844;8.830;2023-06-22T10:09:33;9.97;;;8.40;;
8247;SDS011;4164;49.844;8.830;2023-06-22T10:11:58;9.07;;;7.93;;
8247;SDS011;4164;49.844;8.830;2023-06-22T10:14:24;8.53;;;7.47;;
8247;SDS011;4164;49.844;8.830;2023-06-22T10:16:51;10.63;;;8.80;;
8247;SDS011;4164;49.844;8.830;2023-06-22T10:19:17;10.03;;;8.20;;
8247;SDS011;4164;49.844;8.830;2023-06-22T10:21:46;9.77;;;7.87;;
8247;SDS011;4164;49.844;8.830;2023-06-22T10:24:11;9.07;;;8.27;;
8247;SDS011;4164;49.844;8.830;2023-06-22T10:26:37;8.63;;;7.37;;
8247;SDS011;4164;49.844;8.830;2023-06-22T10:29:03;10.90;;;8.73;;
8247;SDS011;4164;49.844;8.830;2023-06-22T10:31:28;10.43;;;8.10;;
8247;SDS011;4164;49.844;8.830;2023-06-22T10:33:54;10.80;;;8.63;;
8247;SDS011;4164;49.844;8.830;2023-06-22T10:36:21;11.00;;;8.40;;
8247;SDS011;4164;49.844;8.830;2023-06-22T10:38:47;10.23;;;8.17;;
8247;SDS011;4164;49.844;8.830;2023-06-22T10:41:13;10.77;;;9.20;;
8247;SDS011;4164;49.844;8.830;2023-06-22T10:43:39;9.00;;;8.10;;
8247;SDS011;4164;49.844;8.830;2023-06-22T10:46:05;9.07;;;8.13;;
8247;SDS011;4164;49.844;8.830;2023-06-22T10:48:31;11.33;;;8.37;;
8247;SDS011;4164;49.844;8.830;2023-06-22T10:50:57;16.90;;;8.07;;
8247;SDS011;4164;49.844;8.830;2023-06-22T10:53:22;8.57;;;7.70;;
8247;SDS011;4164;49.844;8.830;2023-06-22T10:55:48;9.27;;;8.37;;
8247;SDS011;4164;49.844;8.830;2023-06-22T10:58:13;9.80;;;8.33;;
8247;SDS011;4164;49.844;8.830;2023-06-22T11:00:39;10.53;;;8.13;;
8247;SDS011;4164;49.844;8.830;2023-06-22T11:03:04;11.17;;;7.93;;
8247;SDS011;4164;49.844;8.830;2023-06-22T11:05:30;10.20;;;7.97;;
8247;SDS011;4164;49.844;8.830;2023-06-22T11:07:56;9.53;;;8.57;;
8247;SDS011;4164;49.844;8.830;2023-06-22T11:10:21;10.73;;;8.00;;
8247;SDS011;4164;49.844;8.830;2023-06-22T11:12:47;9.00;;;8.10;;
8247;SDS011;4164;49.844;8.830;2023-06-22T11:15:13;13.30;;;8.00;;
8247;SDS011;4164;49.844;8.830;2023-06-22T11:17:38;14.10;;;8.30;;
8247;SDS011;4164;49.844;8.830;2023-06-22T11:20:04;12.90;;;8.23;;
8247;SDS011;4164;49.844;8.830;2023-06-22T11:22:37;11.27;;;7.97;;
8247;SDS011;4164;49.844;8.830;2023-06-22T11:25:04;11.33;;;8.03;;
8247;SDS011;4164;49.844;8.830;2023-06-22T11:27:30;12.30;;;8.30;;
8247;SDS011;4164;49.844;8.830;2023-06-22T11:29:56;11.10;;;8.20;;
8247;SDS011;4164;49.844;8.830;2023-06-22T11:32:22;15.33;;;7.57;;
8247;SDS011;4164;49.844;8.830;2023-06-22T11:34:48;9.97;;;7.83;;
8247;SDS011;4164;49.844;8.830;2023-06-22T11:37:13;8.47;;;7.17;;
8247;SDS011;4164;49.844;8.830;2023-06-22T11:39:40;8.63;;;7.50;;
8247;SDS011;4164;49.844;8.830;2023-06-22T11:42:06;8.93;;;7.30;;
8247;SDS011;4164;49.844;8.830;2023-06-22T11:44:32;11.13;;;8.10;;
8247;SDS011;4164;49.844;8.830;2023-06-22T11:46:57;10.17;;;8.03;;
8247;SDS011;4164;49.844;8.830;2023-06-22T11:49:23;12.70;;;7.73;;
8247;SDS011;4164;49.844;8.830;2023-06-22T11:51:49;8.60;;;7.80;;
8247;SDS011;4164;49.844;8.830;2023-06-22T11:54:14;8.00;;;7.20;;
8247;SDS011;4164;49.844;8.830;2023-06-22T11:56:40;8.60;;;7.20;;
8247;SDS011;4164;49.844;8.830;2023-06-22T11:59:05;8.60;;;6.80;;
8247;SDS011;4164;49.844;8.830;2023-06-22T12:01:31;10.50;;;6.47;;
8247;SDS011;4164;49.844;8.830;2023-06-22T12:03:58;8.53;;;7.73;;
8247;SDS011;4164;49.844;8.830;2023-06-22T12:06:24;10.33;;;7.23;;
8247;SDS011;4164;49.844;8.830;2023-06-22T12:08:49;10.17;;;7.03;;
8247;SDS011;4164;49.844;8.830;2023-06-22T12:11:15;11.65;;;7.18;;
8247;SDS011;4164;49.844;8.830;2023-06-22T12:13:40;7.80;;;6.80;;
8247;SDS011;4164;49.844;8.830;2023-06-22T12:16:06;10.63;;;7.73;;
8247;SDS011;4164;49.844;8.830;2023-06-22T12:18:32;9.63;;;7.37;;
8247;SDS011;4164;49.844;8.830;2023-06-22T12:20:57;8.97;;;7.23;;
8247;SDS011;4164;49.844;8.830;2023-06-22T12:23:23;11.80;;;7.80;;
8247;SDS011;4164;49.844;8.830;2023-06-22T12:25:48;8.60;;;7.43;;
8247;SDS011;4164;49.844;8.830;2023-06-22T12:28:14;10.17;;;7.10;;
8247;SDS011;4164;49.844;8.830;2023-06-22T12:30:40;11.37;;;7.47;;
8247;SDS011;4164;49.844;8.830;2023-06-22T12:33:05;8.97;;;7.37;;
8247;SDS011;4164;49.844;8.830;2023-06-22T12:35:31;10.87;;;6.90;;
8247;SDS011;4164;49.844;8.830;2023-06-22T12:37:56;7.73;;;7.03;;
8247;SDS011;4164;49.844;8.830;2023-06-22T12:40:22;10.00;;;7.30;;
8247;SDS011;4164;49.844;8.830;2023-06-22T12:42:47;8.90;;;6.97;;
8247;SDS011;4164;49.844;8.830;2023-06-22T12:45:13;9.80;;;7.13;;
8247;SDS011;4164;49.844;8.830;2023-06-22T12:47:38;11.07;;;7.40;;
8247;SDS011;4164;49.844;8.830;2023-06-22T12:50:04;9.37;;;7.03;;
8247;SDS011;4164;49.844;8.830;2023-06-22T12:52:30;10.07;;;7.20;;
8247;SDS011;4164;49.844;8.830;2023-06-22T12:54:59;9.13;;;7.03;;
8247;SDS011;4164;49.844;8.830;2023-06-22T12:57:24;9.23;;;6.83;;
8247;SDS011;4164;49.844;8.830;2023-06-22T12:59:50;7.77;;;7.07;;
8247;SDS011;4164;49.844;8.830;2023-06-22T13:02:16;10.07;;;7.10;;
8247;SDS011;4164;49.844;8.830;2023-06-22T13:04:41;12.00;;;6.63;;
8247;SDS011;4164;49.844;8.830;2023-06-22T13:07:08;9.93;;;6.97;;
8247;SDS011;4164;49.844;8.830;2023-06-22T13:09:33;12.35;;;7.05;;
8247;SDS011;4164;49.844;8.830;2023-06-22T13:12:01;8.07;;;6.80;;
8247;SDS011;4164;49.844;8.830;2023-06-22T13:14:27;9.73;;;7.60;;
8247;SDS011;4164;49.844;8.830;2023-06-22T13:16:52;10.88;;;7.20;;
8247;SDS011;4164;49.844;8.830;2023-06-22T13:19:18;8.10;;;6.60;;
8247;SDS011;4164;49.844;8.830;2023-06-22T13:21:43;10.60;;;6.63;;
8247;SDS011;4164;49.844;8.830;2023-06-22T13:24:09;8.70;;;6.25;;
8247;SDS011;4164;49.844;8.830;2023-06-22T13:26:35;12.63;;;6.50;;
8247;SDS011;4164;49.844;8.830;2023-06-22T13:29:00;7.40;;;6.68;;
8247;SDS011;4164;49.844;8.830;2023-06-22T13:31:26;7.78;;;5.95;;
8247;SDS011;4164;49.844;8.830;2023-06-22T13:33:51;6.65;;;5.85;;
8247;SDS011;4164;49.844;8.830;2023-06-22T13:36:17;11.35;;;6.50;;
8247;SDS011;4164;49.844;8.830;2023-06-22T13:38:43;13.25;;;6.60;;
8247;SDS011;4164;49.844;8.830;2023-06-22T13:41:09;11.75;;;6.65;;
8247;SDS011;4164;49.844;8.830;2023-06-22T13:43:35;13.25;;;7.18;;
8247;SDS011;4164;49.844;8.830;2023-06-22T13:46:00;12.77;;;6.60;;
8247;SDS011;4164;49.844;8.830;2023-06-22T13:48:26;14.38;;;6.28;;
8247;SDS011;4164;49.844;8.830;2023-06-22T13:50:53;13.27;;;5.72;;
8247;SDS011;4164;49.844;8.830;2023-06-22T13:53:19;14.48;;;5.88;;
8247;SDS011;4164;49.844;8.830;2023-06-22T13:55:44;12.93;;;5.77;;
8247;SDS011;4164;49.844;8.830;2023-06-22T13:58:10;9.05;;;5.80;;
8247;SDS011;4164;49.844;8.830;2023-06-22T14:00:35;9.98;;;5.72;;
8247;SDS011;4164;49.844;8.830;2023-06-22T14:03:01;14.48;;;6.60;;
8247;SDS011;4164;49.844;8.830;2023-06-22T14:05:26;10.77;;;5.68;;
8247;SDS011;4164;49.844;8.830;2023-06-22T14:07:52;9.77;;;5.37;;
8247;SDS011;4164;49.844;8.830;2023-06-22T14:10:17;11.97;;;5.50;;
8247;SDS011;4164;49.844;8.830;2023-06-22T14:12:43;12.23;;;5.53;;
8247;SDS011;4164;49.844;8.830;2023-06-22T14:15:09;11.40;;;5.40;;
8247;SDS011;4164;49.844;8.830;2023-06-22T14:17:35;9.70;;;4.70;;
8247;SDS011;4164;49.844;8.830;2023-06-22T14:20:01;14.13;;;5.63;;
8247;SDS011;4164;49.844;8.830;2023-06-22T14:22:26;12.13;;;5.27;;
8247;SDS011;4164;49.844;8.830;2023-06-22T14:24:54;9.70;;;5.27;;
8247;SDS011;4164;49.844;8.830;2023-06-22T14:27:21;16.30;;;5.30;;
8247;SDS011;4164;49.844;8.830;2023-06-22T14:29:46;12.27;;;5.60;;
8247;SDS011;4164;49.844;8.830;2023-06-22T14:32:12;10.33;;;4.87;;
8247;SDS011;4164;49.844;8.830;2023-06-22T14:34:37;13.65;;;4.97;;
8247;SDS011;4164;49.844;8.830;2023-06-22T14:37:05;8.93;;;5.05;;
8247;SDS011;4164;49.844;8.830;2023-06-22T14:39:31;8.60;;;5.10;;
8247;SDS011;4164;49.844;8.830;2023-06-22T14:41:57;15.07;;;5.32;;
8247;SDS011;4164;49.844;8.830;2023-06-22T14:44:23;19.10;;;5.57;;
8247;SDS011;4164;49.844;8.830;2023-06-22T14:46:48;8.70;;;5.25;;
8247;SDS011;4164;49.844;8.830;2023-06-22T14:49:14;11.45;;;5.53;;
8247;SDS011;4164;49.844;8.830;2023-06-22T14:51:39;12.57;;;4.88;;
8247;SDS011;4164;49.844;8.830;2023-06-22T14:54:05;10.68;;;5.05;;
8247;SDS011;4164;49.844;8.830;2023-06-22T14:56:31;13.37;;;4.80;;
8247;SDS011;4164;49.844;8.830;2023-06-22T14:58:56;11.97;;;5.97;;
8247;SDS011;4164;49.844;8.830;2023-06-22T15:01:22;11.93;;;5.67;;